Flight Track Log - Related Links

Times and Time Zones

All times are in EDT time to prevent confusion due to time zone crossing. See the SWA3943 flight status page for this flight to view local times or setup timezone preferences in your user account.

Time Position Orientation Groundspeed Altitude Reporting Facility
EDT Latitude Longitude Course Direction KTS MPH feet Rate Location/Type
Wed 08:23:21 PM 39.9911 -82.8328 93° East 165 190 2,500  Level Indianapolis Center
Wed 08:24:07 PM 39.9911 -82.7847 90° East 213 245 3,300 1,701 Climbing Indianapolis Center
Wed 08:24:28 PM 39.9925 -82.7458 87° East 247 284 4,400 2,164 Climbing Indianapolis Center
Wed 08:25:08 PM 39.9919 -82.6739 91° East 256 295 5,500 3,089 Climbing Indianapolis Center
Wed 08:26:09 PM 39.9914 -82.5675 90° East 290 334 9,600 3,220 Climbing Indianapolis Center
Wed 08:27:11 PM 39.9925 -82.4503 89° East 329 379 12,100 3,024 Climbing Indianapolis Center
Wed 08:28:12 PM 39.9936 -82.3217 89° East 349 402 15,800 3,098 Climbing Indianapolis Center
Wed 08:29:13 PM 39.9972 -82.1914 88° East 360 414 18,400 2,439 Climbing Indianapolis Center
Wed 08:30:15 PM 40.0008 -82.0506 88° East 381 438 20,800 2,244 Climbing Indianapolis Center
Wed 08:31:16 PM 40.0036 -81.9017 89° East 402 463 23,000 2,098 Climbing Indianapolis Center
Wed 08:32:18 PM 40.0061 -81.7597 89° East 418 481 25,100 2,195 Climbing Indianapolis Center
Wed 08:33:19 PM 40.0081 -81.5739 89° East 436 502 27,500 1,918 Climbing Indianapolis Center
Wed 08:34:20 PM 40.0089 -81.4097 90° East 448 516 29,000 732 Climbing Indianapolis Center
Wed 08:35:22 PM 39.9869 -81.2431 100° East 463 533 29,000  Level Indianapolis Center
Wed 08:36:15 PM 39.9700 -81.1086 99° East 461 531 29,000  Level Cleveland Center
Wed 08:37:15 PM 39.9478 -80.9406 100° East 467 537 29,000  Level Cleveland Center
Wed 08:38:15 PM 39.9231 -80.7753 101° East 467 537 29,000  Level Cleveland Center
Wed 08:39:15 PM 39.8961 -80.6075 102° East 467 537 29,000  Level Cleveland Center
Wed 08:40:15 PM 39.8733 -80.4425 100° East 467 537 29,000  Level Cleveland Center
Wed 08:41:15 PM 39.8458 -80.2639 101° East 467 537 29,000  Level Cleveland Center
Wed 08:42:15 PM 39.8222 -80.1019 101° East 467 537 29,000  Level Cleveland Center
Wed 08:43:15 PM 39.7964 -79.9372 101° East 467 537 29,000  Level Cleveland Center
Wed 08:44:15 PM 39.7725 -79.7728 101° East 467 537 29,000  Level Cleveland Center
Wed 08:45:39 PM 39.7344 -79.5419 102° East 462 532 29,000  Level Washington Center
Wed 08:46:39 PM 39.7083 -79.3786 102° East 462 532 29,000 -1,050 Level Washington Center
Wed 08:47:39 PM 39.6842 -79.2208 101° East 456 525 26,900 -2,000 Descending Washington Center
Wed 08:48:39 PM 39.6575 -79.0633 102° East 450 518 25,000 -950 Descending Washington Center
Wed 08:49:39 PM 39.6258 -78.9269 107° East 439 505 25,000  Level Washington Center
Wed 08:50:39 PM 39.5944 -78.7775 105° East 439 505 25,000 -900 Level Washington Center
Wed 08:51:39 PM 39.5628 -78.6386 106° East 419 482 23,200 -2,000 Descending Washington Center
Wed 08:52:39 PM 39.5328 -78.5031 106° East 405 466 21,000 -2,150 Descending Washington Center
Wed 08:53:39 PM 39.5044 -78.3728 106° East 393 452 18,900 -2,067 Descending Washington Center
Wed 08:54:38 PM 39.4761 -78.2453 106° East 374 430 16,900 -2,000 Descending Washington Center
Wed 08:55:39 PM 39.4517 -78.1181 104° East 369 425 14,900 -992 Descending Washington Center
Wed 08:56:39 PM 39.4503 -77.9889 91° East 356 410 14,900 50 Level Washington Center
Wed 08:57:39 PM 39.4483 -77.8653 91° East 351 404 15,000 50 Climbing Washington Center
Wed 08:58:39 PM 39.4486 -77.7389 90° East 351 404 15,000 -450 Level Washington Center
Wed 08:59:39 PM 39.4467 -77.6125 91° East 351 404 14,100 -1,550 Descending Washington Center
Wed 09:00:39 PM 39.4447 -77.4756 91° East 346 398 11,900 -1,550 Descending Washington Center
Wed 09:01:39 PM 39.4444 -77.3572 90° East 346 398 11,000 -1,100 Descending Washington Center
Wed 09:02:39 PM 39.4586 -77.2472 80° East 328 377 9,700 -1,538 Descending Washington Center
Wed 09:02:57 PM 39.4500 -77.2167 110° East 306 352 9,000 -1,769 Descending Potomac TRACON
Wed 09:03:57 PM 39.4167 -77.1167 113° Southeast 297 342 7,400 -1,550 Descending Potomac TRACON
Wed 09:04:57 PM 39.3667 -77.0500 134° Southeast 286 329 5,900 -1,367 Descending Potomac TRACON
Wed 09:06:00 PM 39.3092 -76.9348 142° Southeast  Level Estimated
Wed 09:06:57 PM 39.2333 -76.9500 142° Southeast 250 288 3,300  Level Potomac TRACON
Wed 09:07:57 PM 39.1833 -76.8833 134° Southeast 242 278 2,500 -550 Descending Potomac TRACON
Wed 09:08:57 PM 39.1833 -76.8167 90° East 185 213 2,200 -621 Descending Potomac TRACON
Wed 09:10:00 PM 39.1667 -76.6853 90° East  Level FlightAware Approximate
Wed 09:10:51 PM 39.1833 -76.7167 90° East 129 148 700  Level Potomac TRACON
Wed 09:12:00 PM 39.1667 -76.6667 90° East  Level FlightAware Approximate
Wed 09:19:00 PM 39.1754 -76.6683 90° East  Level Estimated
Wed 09:20:00 PM 39.1754 -76.6683 90° East  Level Estimated
Wed 09:21:00 PM 39.1754 -76.6683 90° East  Level Estimated

Login

Don't have an account? Register now (free) for customized features, flight alerts, and more!